KSAT - San Antonio Intl, TX, US

Issued at 1121 UTC 16 Jul 2019
Updated at 1212 UTC 16 Jul 2019
Potential Impact None Slight Moderate High
Time1151Z 16/13Z 16/14Z 16/15Z 16/16Z 16/17Z 16/18Z 16/19Z 16/20Z 16/21Z 16/22Z 16/23Z 17/00Z 17/01Z>>
Type OBS PRVL PRVL PRVL PRVL PRVL PRVL PRVL PRVL PRVL PRVL PRVL PRVL PRVL
VIS 10 >6 >6 >6 >6 >6 >6 >6 >6 >6 >6 >6 >6 >6
CIG 18 15 15 -- -- -- -- -- -- -- -- -- -- --
Cover BKN BKN BKN SCT SCT SCT SCT SCT SCT SCT SCT SCT SCT SCT
FltCat MVFR MVFR MVFR VFR VFR VFR VFR VFR VFR VFR VFR VFR VFR VFR
WX -- -- -- -- -- -- -- -- -- -- -- -- -- --
WDir 160 160 160 150 150 150 150 150 150 150 150 150 150 150
WSpd 10 7 7 12 12 12 12 12 12 12 12 12 12 12
WGst -- -- -- -- -- -- -- -- -- -- -- -- -- --
Raw TAF
KSAT 161121Z 1612/1718 16007KT P6SM BKN015
  FM161500 15012KT P6SM SCT250
  FM170900 13007KT P6SM BKN015
  FM171600 16012KT P6SM SCT040


Raw METAR
KSAT 161151Z 16010KT 10SM BKN018 BKN250 26/23 A3000 RMK AO2 SLP139 T02610228 10272 20250 51010
KSAT 161051Z 17009KT 10SM BKN016 OVC021 26/23 A3000 RMK AO2 SLP137 T02610228
KSAT 161020Z 17008KT 10SM BKN015 OVC020 26/23 A2999 RMK AO2 T02610228
KSAT 160951Z 15009KT 10SM OVC012 26/23 A2998 RMK AO2 SLP132 T02610228

METAR Board
Radar Display
Forecast Discussion
For situational awareness. Not to be used for flight planning purposes.